sensor_id;sensor_type;location;lat;lon;timestamp;P1;durP1;ratioP1;P2;durP2;ratioP2
30896;SDS011;64229;52.246;21.054;2023-08-21T00:00:54;13.95;;;10.90;;
30896;SDS011;64229;52.246;21.054;2023-08-21T00:03:20;13.17;;;10.90;;
30896;SDS011;64229;52.246;21.054;2023-08-21T00:05:45;12.80;;;10.43;;
30896;SDS011;64229;52.246;21.054;2023-08-21T00:08:10;13.30;;;10.43;;
30896;SDS011;64229;52.246;21.054;2023-08-21T00:10:38;13.13;;;10.23;;
30896;SDS011;64229;52.246;21.054;2023-08-21T00:13:04;13.30;;;10.23;;
30896;SDS011;64229;52.246;21.054;2023-08-21T00:15:30;14.43;;;10.40;;
30896;SDS011;64229;52.246;21.054;2023-08-21T00:17:55;17.80;;;12.13;;
30896;SDS011;64229;52.246;21.054;2023-08-21T00:20:20;16.47;;;11.03;;
30896;SDS011;64229;52.246;21.054;2023-08-21T00:22:46;14.30;;;10.57;;
30896;SDS011;64229;52.246;21.054;2023-08-21T00:25:11;11.70;;;10.20;;
30896;SDS011;64229;52.246;21.054;2023-08-21T00:27:36;13.43;;;10.20;;
30896;SDS011;64229;52.246;21.054;2023-08-21T00:30:01;17.85;;;11.73;;
30896;SDS011;64229;52.246;21.054;2023-08-21T00:32:27;16.48;;;11.50;;
30896;SDS011;64229;52.246;21.054;2023-08-21T00:34:52;14.73;;;11.27;;
30896;SDS011;64229;52.246;21.054;2023-08-21T00:37:17;18.87;;;11.70;;
30896;SDS011;64229;52.246;21.054;2023-08-21T00:39:43;14.00;;;11.03;;
30896;SDS011;64229;52.246;21.054;2023-08-21T00:42:08;17.03;;;12.07;;
30896;SDS011;64229;52.246;21.054;2023-08-21T00:44:33;17.03;;;11.60;;
30896;SDS011;64229;52.246;21.054;2023-08-21T00:46:58;14.63;;;10.88;;
30896;SDS011;64229;52.246;21.054;2023-08-21T00:49:24;14.93;;;11.18;;
30896;SDS011;64229;52.246;21.054;2023-08-21T00:51:50;16.60;;;12.13;;
30896;SDS011;64229;52.246;21.054;2023-08-21T00:54:16;14.50;;;11.15;;
30896;SDS011;64229;52.246;21.054;2023-08-21T00:56:42;17.30;;;12.55;;
30896;SDS011;64229;52.246;21.054;2023-08-21T00:59:08;17.65;;;12.60;;
30896;SDS011;64229;52.246;21.054;2023-08-21T01:01:34;15.35;;;11.05;;
30896;SDS011;64229;52.246;21.054;2023-08-21T01:04:00;18.02;;;11.43;;
30896;SDS011;64229;52.246;21.054;2023-08-21T01:06:25;16.50;;;11.38;;
30896;SDS011;64229;52.246;21.054;2023-08-21T01:09:02;15.77;;;11.40;;
30896;SDS011;64229;52.246;21.054;2023-08-21T01:11:47;16.38;;;11.00;;
30896;SDS011;64229;52.246;21.054;2023-08-21T01:14:33;14.57;;;11.18;;
30896;SDS011;64229;52.246;21.054;2023-08-21T01:17:06;16.60;;;11.77;;
30896;SDS011;64229;52.246;21.054;2023-08-21T01:19:36;18.67;;;12.35;;
30896;SDS011;64229;52.246;21.054;2023-08-21T01:22:05;18.77;;;12.60;;
30896;SDS011;64229;52.246;21.054;2023-08-21T01:24:31;16.25;;;11.55;;
30896;SDS011;64229;52.246;21.054;2023-08-21T01:26:56;18.10;;;12.75;;
30896;SDS011;64229;52.246;21.054;2023-08-21T01:29:22;17.25;;;12.57;;
30896;SDS011;64229;52.246;21.054;2023-08-21T01:31:51;16.38;;;12.38;;
30896;SDS011;64229;52.246;21.054;2023-08-21T01:34:23;14.65;;;12.02;;
30896;SDS011;64229;52.246;21.054;2023-08-21T01:36:49;14.98;;;11.32;;
30896;SDS011;64229;52.246;21.054;2023-08-21T01:39:15;16.73;;;11.68;;
30896;SDS011;64229;52.246;21.054;2023-08-21T01:41:41;15.25;;;11.13;;
30896;SDS011;64229;52.246;21.054;2023-08-21T01:44:07;15.70;;;11.52;;
30896;SDS011;64229;52.246;21.054;2023-08-21T01:46:32;15.87;;;12.00;;
30896;SDS011;64229;52.246;21.054;2023-08-21T01:48:58;13.13;;;10.73;;
30896;SDS011;64229;52.246;21.054;2023-08-21T01:51:23;13.70;;;10.60;;
30896;SDS011;64229;52.246;21.054;2023-08-21T01:53:48;14.47;;;11.97;;
30896;SDS011;64229;52.246;21.054;2023-08-21T01:56:13;13.27;;;10.83;;
30896;SDS011;64229;52.246;21.054;2023-08-21T01:58:39;17.43;;;12.87;;
30896;SDS011;64229;52.246;21.054;2023-08-21T02:01:04;19.03;;;12.67;;
30896;SDS011;64229;52.246;21.054;2023-08-21T02:03:30;17.80;;;12.13;;
30896;SDS011;64229;52.246;21.054;2023-08-21T02:05:55;15.15;;;11.63;;
30896;SDS011;64229;52.246;21.054;2023-08-21T02:08:26;16.90;;;12.18;;
30896;SDS011;64229;52.246;21.054;2023-08-21T02:10:55;13.85;;;11.68;;
30896;SDS011;64229;52.246;21.054;2023-08-21T02:13:20;15.40;;;12.37;;
30896;SDS011;64229;52.246;21.054;2023-08-21T02:15:45;18.17;;;13.90;;
30896;SDS011;64229;52.246;21.054;2023-08-21T02:18:11;17.85;;;12.48;;
30896;SDS011;64229;52.246;21.054;2023-08-21T02:20:36;15.17;;;12.43;;
30896;SDS011;64229;52.246;21.054;2023-08-21T02:23:01;20.33;;;13.47;;
30896;SDS011;64229;52.246;21.054;2023-08-21T02:25:26;17.10;;;13.27;;
30896;SDS011;64229;52.246;21.054;2023-08-21T02:27:52;14.90;;;11.85;;
30896;SDS011;64229;52.246;21.054;2023-08-21T02:30:17;18.10;;;13.20;;
30896;SDS011;64229;52.246;21.054;2023-08-21T02:32:42;17.70;;;13.57;;
30896;SDS011;64229;52.246;21.054;2023-08-21T02:35:08;19.23;;;13.82;;
30896;SDS011;64229;52.246;21.054;2023-08-21T02:37:33;16.17;;;12.20;;
30896;SDS011;64229;52.246;21.054;2023-08-21T02:39:59;17.48;;;12.38;;
30896;SDS011;64229;52.246;21.054;2023-08-21T02:42:25;17.85;;;13.50;;
30896;SDS011;64229;52.246;21.054;2023-08-21T02:44:50;17.80;;;14.07;;
30896;SDS011;64229;52.246;21.054;2023-08-21T02:47:15;16.73;;;13.00;;
30896;SDS011;64229;52.246;21.054;2023-08-21T02:49:41;15.57;;;11.73;;
30896;SDS011;64229;52.246;21.054;2023-08-21T02:52:06;19.10;;;13.27;;
30896;SDS011;64229;52.246;21.054;2023-08-21T02:54:32;17.65;;;13.15;;
30896;SDS011;64229;52.246;21.054;2023-08-21T02:56:57;20.60;;;14.67;;
30896;SDS011;64229;52.246;21.054;2023-08-21T02:59:22;17.65;;;12.70;;
30896;SDS011;64229;52.246;21.054;2023-08-21T03:01:47;19.60;;;14.00;;
30896;SDS011;64229;52.246;21.054;2023-08-21T03:04:13;16.97;;;13.30;;
30896;SDS011;64229;52.246;21.054;2023-08-21T03:06:38;21.83;;;13.77;;
30896;SDS011;64229;52.246;21.054;2023-08-21T03:09:03;19.10;;;14.13;;
30896;SDS011;64229;52.246;21.054;2023-08-21T03:11:28;21.10;;;12.97;;
30896;SDS011;64229;52.246;21.054;2023-08-21T03:13:54;18.43;;;13.63;;
30896;SDS011;64229;52.246;21.054;2023-08-21T03:16:19;19.20;;;12.43;;
30896;SDS011;64229;52.246;21.054;2023-08-21T03:18:54;21.47;;;14.40;;
30896;SDS011;64229;52.246;21.054;2023-08-21T03:21:22;22.50;;;15.27;;
30896;SDS011;64229;52.246;21.054;2023-08-21T03:23:49;19.55;;;14.25;;
30896;SDS011;64229;52.246;21.054;2023-08-21T03:26:20;22.05;;;13.73;;
30896;SDS011;64229;52.246;21.054;2023-08-21T03:28:45;19.43;;;14.40;;
30896;SDS011;64229;52.246;21.054;2023-08-21T03:31:10;19.83;;;14.07;;
30896;SDS011;64229;52.246;21.054;2023-08-21T03:33:35;17.95;;;13.07;;
30896;SDS011;64229;52.246;21.054;2023-08-21T03:36:01;23.63;;;15.18;;
30896;SDS011;64229;52.246;21.054;2023-08-21T03:38:26;22.60;;;15.07;;
30896;SDS011;64229;52.246;21.054;2023-08-21T03:40:51;22.37;;;13.20;;
30896;SDS011;64229;52.246;21.054;2023-08-21T03:43:16;19.90;;;14.53;;
30896;SDS011;64229;52.246;21.054;2023-08-21T03:45:42;22.97;;;15.37;;
30896;SDS011;64229;52.246;21.054;2023-08-21T03:48:07;18.37;;;14.00;;
30896;SDS011;64229;52.246;21.054;2023-08-21T03:50:32;21.27;;;13.80;;
30896;SDS011;64229;52.246;21.054;2023-08-21T03:52:57;18.10;;;13.90;;
30896;SDS011;64229;52.246;21.054;2023-08-21T03:55:23;18.27;;;14.53;;
30896;SDS011;64229;52.246;21.054;2023-08-21T03:57:48;20.75;;;15.52;;
30896;SDS011;64229;52.246;21.054;2023-08-21T04:00:13;26.60;;;16.40;;
30896;SDS011;64229;52.246;21.054;2023-08-21T04:02:40;20.58;;;14.73;;
30896;SDS011;64229;52.246;21.054;2023-08-21T04:05:05;24.25;;;15.15;;
30896;SDS011;64229;52.246;21.054;2023-08-21T04:07:31;22.95;;;14.57;;
30896;SDS011;64229;52.246;21.054;2023-08-21T04:09:56;26.63;;;16.33;;
30896;SDS011;64229;52.246;21.054;2023-08-21T04:12:21;20.83;;;14.67;;
30896;SDS011;64229;52.246;21.054;2023-08-21T04:14:46;21.83;;;15.97;;
30896;SDS011;64229;52.246;21.054;2023-08-21T04:17:12;21.30;;;15.77;;
30896;SDS011;64229;52.246;21.054;2023-08-21T04:19:37;22.40;;;14.13;;
30896;SDS011;64229;52.246;21.054;2023-08-21T04:22:05;20.98;;;14.68;;
30896;SDS011;64229;52.246;21.054;2023-08-21T04:24:31;21.83;;;15.60;;
30896;SDS011;64229;52.246;21.054;2023-08-21T04:26:56;20.13;;;15.50;;
30896;SDS011;64229;52.246;21.054;2023-08-21T04:29:21;21.07;;;14.70;;
30896;SDS011;64229;52.246;21.054;2023-08-21T04:31:46;24.33;;;15.82;;
30896;SDS011;64229;52.246;21.054;2023-08-21T04:34:12;20.73;;;14.73;;
30896;SDS011;64229;52.246;21.054;2023-08-21T04:36:37;21.05;;;15.52;;
30896;SDS011;64229;52.246;21.054;2023-08-21T04:39:02;22.50;;;15.97;;
30896;SDS011;64229;52.246;21.054;2023-08-21T04:41:28;21.98;;;15.02;;
30896;SDS011;64229;52.246;21.054;2023-08-21T04:43:53;18.37;;;13.50;;
30896;SDS011;64229;52.246;21.054;2023-08-21T04:46:18;22.07;;;14.03;;
30896;SDS011;64229;52.246;21.054;2023-08-21T04:48:44;20.27;;;15.65;;
30896;SDS011;64229;52.246;21.054;2023-08-21T04:51:10;20.10;;;14.33;;
30896;SDS011;64229;52.246;21.054;2023-08-21T04:53:35;20.08;;;14.15;;
30896;SDS011;64229;52.246;21.054;2023-08-21T04:56:00;22.60;;;14.63;;
30896;SDS011;64229;52.246;21.054;2023-08-21T04:58:25;22.83;;;16.27;;
30896;SDS011;64229;52.246;21.054;2023-08-21T05:00:51;25.80;;;15.67;;
30896;SDS011;64229;52.246;21.054;2023-08-21T05:03:16;23.15;;;15.70;;
30896;SDS011;64229;52.246;21.054;2023-08-21T05:05:41;22.50;;;14.37;;
30896;SDS011;64229;52.246;21.054;2023-08-21T05:08:06;20.07;;;15.20;;
30896;SDS011;64229;52.246;21.054;2023-08-21T05:10:32;23.77;;;15.65;;
30896;SDS011;64229;52.246;21.054;2023-08-21T05:12:57;20.58;;;15.45;;
30896;SDS011;64229;52.246;21.054;2023-08-21T05:15:22;20.85;;;14.82;;
30896;SDS011;64229;52.246;21.054;2023-08-21T05:17:48;24.57;;;15.00;;
30896;SDS011;64229;52.246;21.054;2023-08-21T05:20:13;18.53;;;14.50;;
30896;SDS011;64229;52.246;21.054;2023-08-21T05:22:39;19.30;;;14.23;;
30896;SDS011;64229;52.246;21.054;2023-08-21T05:25:05;24.25;;;15.68;;
30896;SDS011;64229;52.246;21.054;2023-08-21T05:27:31;20.05;;;14.38;;
30896;SDS011;64229;52.246;21.054;2023-08-21T05:29:56;20.33;;;14.07;;
30896;SDS011;64229;52.246;21.054;2023-08-21T05:32:21;20.47;;;15.07;;
30896;SDS011;64229;52.246;21.054;2023-08-21T05:34:47;21.67;;;15.02;;
30896;SDS011;64229;52.246;21.054;2023-08-21T05:37:12;21.50;;;16.37;;
30896;SDS011;64229;52.246;21.054;2023-08-21T05:39:37;16.80;;;13.27;;
30896;SDS011;64229;52.246;21.054;2023-08-21T05:42:02;20.30;;;15.07;;
30896;SDS011;64229;52.246;21.054;2023-08-21T05:44:28;22.50;;;16.13;;
30896;SDS011;64229;52.246;21.054;2023-08-21T05:46:53;18.20;;;14.23;;
30896;SDS011;64229;52.246;21.054;2023-08-21T05:49:18;21.83;;;14.43;;
30896;SDS011;64229;52.246;21.054;2023-08-21T05:51:44;20.38;;;13.85;;
30896;SDS011;64229;52.246;21.054;2023-08-21T05:54:09;21.35;;;14.80;;
30896;SDS011;64229;52.246;21.054;2023-08-21T05:56:35;20.37;;;16.13;;
30896;SDS011;64229;52.246;21.054;2023-08-21T05:59:00;19.65;;;15.07;;
30896;SDS011;64229;52.246;21.054;2023-08-21T06:01:25;20.70;;;15.37;;
30896;SDS011;64229;52.246;21.054;2023-08-21T06:03:50;17.87;;;14.00;;
30896;SDS011;64229;52.246;21.054;2023-08-21T06:06:16;18.30;;;13.90;;
30896;SDS011;64229;52.246;21.054;2023-08-21T06:08:41;21.98;;;14.90;;
30896;SDS011;64229;52.246;21.054;2023-08-21T06:11:06;21.83;;;15.93;;
30896;SDS011;64229;52.246;21.054;2023-08-21T06:13:31;20.20;;;13.90;;
30896;SDS011;64229;52.246;21.054;2023-08-21T06:15:57;20.67;;;14.93;;
30896;SDS011;64229;52.246;21.054;2023-08-21T06:18:22;23.97;;;16.53;;
30896;SDS011;64229;52.246;21.054;2023-08-21T06:20:48;26.60;;;15.93;;
30896;SDS011;64229;52.246;21.054;2023-08-21T06:23:18;23.42;;;15.82;;
30896;SDS011;64229;52.246;21.054;2023-08-21T06:25:43;27.00;;;17.17;;
30896;SDS011;64229;52.246;21.054;2023-08-21T06:28:09;25.88;;;16.20;;
30896;SDS011;64229;52.246;21.054;2023-08-21T06:30:34;22.40;;;15.97;;
30896;SDS011;64229;52.246;21.054;2023-08-21T06:32:59;21.80;;;14.87;;
30896;SDS011;64229;52.246;21.054;2023-08-21T06:35:25;19.15;;;14.80;;
30896;SDS011;64229;52.246;21.054;2023-08-21T06:37:50;22.88;;;15.38;;
30896;SDS011;64229;52.246;21.054;2023-08-21T06:40:15;26.63;;;16.77;;
30896;SDS011;64229;52.246;21.054;2023-08-21T06:42:41;27.83;;;17.30;;
30896;SDS011;64229;52.246;21.054;2023-08-21T06:45:06;24.23;;;16.27;;
30896;SDS011;64229;52.246;21.054;2023-08-21T06:47:32;23.67;;;15.38;;
30896;SDS011;64229;52.246;21.054;2023-08-21T06:49:58;22.55;;;15.15;;
30896;SDS011;64229;52.246;21.054;2023-08-21T06:52:25;24.50;;;16.02;;
30896;SDS011;64229;52.246;21.054;2023-08-21T06:54:51;21.85;;;15.55;;
30896;SDS011;64229;52.246;21.054;2023-08-21T06:57:17;20.55;;;14.20;;
30896;SDS011;64229;52.246;21.054;2023-08-21T06:59:42;23.60;;;13.77;;
30896;SDS011;64229;52.246;21.054;2023-08-21T07:02:07;22.63;;;15.13;;
30896;SDS011;64229;52.246;21.054;2023-08-21T07:04:33;19.57;;;14.30;;
30896;SDS011;64229;52.246;21.054;2023-08-21T07:06:58;18.27;;;14.57;;
30896;SDS011;64229;52.246;21.054;2023-08-21T07:09:24;22.63;;;14.93;;
30896;SDS011;64229;52.246;21.054;2023-08-21T07:11:49;18.63;;;13.57;;
30896;SDS011;64229;52.246;21.054;2023-08-21T07:14:14;23.97;;;15.27;;
30896;SDS011;64229;52.246;21.054;2023-08-21T07:16:40;19.65;;;14.95;;
30896;SDS011;64229;52.246;21.054;2023-08-21T07:19:05;22.95;;;16.20;;
30896;SDS011;64229;52.246;21.054;2023-08-21T07:21:30;25.35;;;14.98;;
30896;SDS011;64229;52.246;21.054;2023-08-21T07:23:55;20.17;;;14.57;;
30896;SDS011;64229;52.246;21.054;2023-08-21T07:26:21;16.85;;;14.20;;
30896;SDS011;64229;52.246;21.054;2023-08-21T07:28:46;17.50;;;13.77;;
30896;SDS011;64229;52.246;21.054;2023-08-21T07:31:12;23.42;;;15.48;;
30896;SDS011;64229;52.246;21.054;2023-08-21T07:33:37;23.70;;;14.93;;
30896;SDS011;64229;52.246;21.054;2023-08-21T07:36:03;19.47;;;15.07;;
30896;SDS011;64229;52.246;21.054;2023-08-21T07:38:30;18.17;;;14.20;;
30896;SDS011;64229;52.246;21.054;2023-08-21T07:41:06;19.73;;;15.35;;
30896;SDS011;64229;52.246;21.054;2023-08-21T07:43:34;24.73;;;15.25;;
30896;SDS011;64229;52.246;21.054;2023-08-21T07:46:03;24.90;;;16.58;;
30896;SDS011;64229;52.246;21.054;2023-08-21T07:48:29;19.67;;;15.43;;
30896;SDS011;64229;52.246;21.054;2023-08-21T07:50:55;23.25;;;15.60;;
30896;SDS011;64229;52.246;21.054;2023-08-21T07:53:21;24.00;;;16.23;;
30896;SDS011;64229;52.246;21.054;2023-08-21T07:55:47;22.50;;;16.02;;
30896;SDS011;64229;52.246;21.054;2023-08-21T07:58:12;24.47;;;15.93;;
30896;SDS011;64229;52.246;21.054;2023-08-21T08:00:38;18.65;;;15.20;;
30896;SDS011;64229;52.246;21.054;2023-08-21T08:03:04;23.52;;;15.82;;
30896;SDS011;64229;52.246;21.054;2023-08-21T08:05:30;18.88;;;14.25;;
30896;SDS011;64229;52.246;21.054;2023-08-21T08:07:56;24.80;;;16.30;;
30896;SDS011;64229;52.246;21.054;2023-08-21T08:10:21;21.30;;;15.40;;
30896;SDS011;64229;52.246;21.054;2023-08-21T08:12:46;20.07;;;14.63;;
30896;SDS011;64229;52.246;21.054;2023-08-21T08:15:11;19.23;;;14.05;;
30896;SDS011;64229;52.246;21.054;2023-08-21T08:17:37;19.07;;;13.90;;
30896;SDS011;64229;52.246;21.054;2023-08-21T08:20:02;37.97;;;16.43;;
30896;SDS011;64229;52.246;21.054;2023-08-21T08:22:27;27.38;;;15.07;;
30896;SDS011;64229;52.246;21.054;2023-08-21T08:24:53;16.80;;;12.93;;
30896;SDS011;64229;52.246;21.054;2023-08-21T08:27:18;21.97;;;13.23;;
30896;SDS011;64229;52.246;21.054;2023-08-21T08:29:43;19.27;;;13.37;;
30896;SDS011;64229;52.246;21.054;2023-08-21T08:32:08;16.23;;;12.30;;
30896;SDS011;64229;52.246;21.054;2023-08-21T08:34:34;33.40;;;13.87;;
30896;SDS011;64229;52.246;21.054;2023-08-21T08:36:59;21.43;;;11.53;;
30896;SDS011;64229;52.246;21.054;2023-08-21T08:39:24;16.07;;;11.20;;
30896;SDS011;64229;52.246;21.054;2023-08-21T08:42:02;15.68;;;11.55;;
30896;SDS011;64229;52.246;21.054;2023-08-21T08:44:29;15.05;;;11.02;;
30896;SDS011;64229;52.246;21.054;2023-08-21T08:46:55;12.43;;;10.20;;
30896;SDS011;64229;52.246;21.054;2023-08-21T08:49:22;14.65;;;10.57;;
30896;SDS011;64229;52.246;21.054;2023-08-21T08:51:48;17.02;;;11.10;;
30896;SDS011;64229;52.246;21.054;2023-08-21T08:54:15;18.25;;;9.93;;
30896;SDS011;64229;52.246;21.054;2023-08-21T08:56:41;15.07;;;10.73;;
30896;SDS011;64229;52.246;21.054;2023-08-21T08:59:08;15.77;;;9.67;;
30896;SDS011;64229;52.246;21.054;2023-08-21T09:01:34;14.23;;;9.35;;
30896;SDS011;64229;52.246;21.054;2023-08-21T09:04:00;14.10;;;9.05;;
30896;SDS011;64229;52.246;21.054;2023-08-21T09:06:25;15.48;;;9.27;;
30896;SDS011;64229;52.246;21.054;2023-08-21T09:08:54;17.75;;;9.02;;
30896;SDS011;64229;52.246;21.054;2023-08-21T09:11:20;12.98;;;8.38;;
30896;SDS011;64229;52.246;21.054;2023-08-21T09:13:45;11.87;;;8.43;;
30896;SDS011;64229;52.246;21.054;2023-08-21T09:16:11;14.07;;;8.50;;
30896;SDS011;64229;52.246;21.054;2023-08-21T09:18:39;9.15;;;7.75;;
30896;SDS011;64229;52.246;21.054;2023-08-21T09:21:11;9.18;;;6.90;;
30896;SDS011;64229;52.246;21.054;2023-08-21T09:23:38;10.63;;;7.43;;
30896;SDS011;64229;52.246;21.054;2023-08-21T09:26:03;13.53;;;8.40;;
30896;SDS011;64229;52.246;21.054;2023-08-21T09:28:29;10.10;;;6.90;;
30896;SDS011;64229;52.246;21.054;2023-08-21T09:30:56;13.80;;;7.78;;
30896;SDS011;64229;52.246;21.054;2023-08-21T09:33:23;8.25;;;6.75;;
30896;SDS011;64229;52.246;21.054;2023-08-21T09:35:52;7.97;;;6.30;;
30896;SDS011;64229;52.246;21.054;2023-08-21T09:38:19;9.90;;;6.22;;
30896;SDS011;64229;52.246;21.054;2023-08-21T09:40:49;6.68;;;5.50;;
30896;SDS011;64229;52.246;21.054;2023-08-21T09:43:16;19.58;;;6.22;;
30896;SDS011;64229;52.246;21.054;2023-08-21T09:45:42;11.35;;;5.03;;
30896;SDS011;64229;52.246;21.054;2023-08-21T09:48:11;5.78;;;4.32;;
30896;SDS011;64229;52.246;21.054;2023-08-21T09:50:37;5.97;;;3.78;;
30896;SDS011;64229;52.246;21.054;2023-08-21T09:53:03;9.60;;;3.60;;
30896;SDS011;64229;52.246;21.054;2023-08-21T09:55:31;6.95;;;3.35;;
30896;SDS011;64229;52.246;21.054;2023-08-21T09:57:58;8.10;;;3.95;;
30896;SDS011;64229;52.246;21.054;2023-08-21T10:00:31;7.20;;;4.10;;
30896;SDS011;64229;52.246;21.054;2023-08-21T10:03:00;5.07;;;3.70;;
30896;SDS011;64229;52.246;21.054;2023-08-21T10:05:35;4.90;;;3.50;;
30896;SDS011;64229;52.246;21.054;2023-08-21T10:08:03;4.85;;;3.45;;
30896;SDS011;64229;52.246;21.054;2023-08-21T10:10:36;10.25;;;3.50;;
30896;SDS011;64229;52.246;21.054;2023-08-21T10:13:02;8.35;;;3.45;;
30896;SDS011;64229;52.246;21.054;2023-08-21T10:15:29;9.85;;;3.20;;
30896;SDS011;64229;52.246;21.054;2023-08-21T10:17:57;6.88;;;3.50;;
30896;SDS011;64229;52.246;21.054;2023-08-21T10:20:24;4.72;;;3.10;;
30896;SDS011;64229;52.246;21.054;2023-08-21T10:22:53;3.45;;;2.95;;
30896;SDS011;64229;52.246;21.054;2023-08-21T10:25:21;5.82;;;2.97;;
30896;SDS011;64229;52.246;21.054;2023-08-21T10:27:57;4.93;;;3.25;;
30896;SDS011;64229;52.246;21.054;2023-08-21T10:30:26;3.53;;;2.58;;
30896;SDS011;64229;52.246;21.054;2023-08-21T10:32:53;5.65;;;2.70;;
30896;SDS011;64229;52.246;21.054;2023-08-21T10:35:20;4.60;;;2.78;;
30896;SDS011;64229;52.246;21.054;2023-08-21T10:38:04;4.88;;;3.33;;
30896;SDS011;64229;52.246;21.054;2023-08-21T10:40:36;4.65;;;3.33;;
30896;SDS011;64229;52.246;21.054;2023-08-21T10:43:02;7.03;;;3.33;;
30896;SDS011;64229;52.246;21.054;2023-08-21T10:45:28;5.53;;;3.38;;
30896;SDS011;64229;52.246;21.054;2023-08-21T10:47:56;3.88;;;2.97;;
30896;SDS011;64229;52.246;21.054;2023-08-21T10:50:24;4.93;;;3.15;;
30896;SDS011;64229;52.246;21.054;2023-08-21T10:52:51;4.28;;;3.30;;
30896;SDS011;64229;52.246;21.054;2023-08-21T10:55:17;5.18;;;3.90;;
30896;SDS011;64229;52.246;21.054;2023-08-21T10:57:45;8.02;;;3.83;;
30896;SDS011;64229;52.246;21.054;2023-08-21T11:00:12;5.95;;;3.60;;
30896;SDS011;64229;52.246;21.054;2023-08-21T11:02:40;5.47;;;3.80;;
30896;SDS011;64229;52.246;21.054;2023-08-21T11:05:08;6.28;;;3.75;;
30896;SDS011;64229;52.246;21.054;2023-08-21T11:07:38;7.53;;;3.60;;
30896;SDS011;64229;52.246;21.054;2023-08-21T11:10:16;8.68;;;4.72;;
30896;SDS011;64229;52.246;21.054;2023-08-21T11:12:50;8.38;;;4.60;;
30896;SDS011;64229;52.246;21.054;2023-08-21T11:15:22;8.95;;;3.97;;
30896;SDS011;64229;52.246;21.054;2023-08-21T11:17:56;7.15;;;3.90;;
30896;SDS011;64229;52.246;21.054;2023-08-21T11:22:56;5.25;;;3.55;;
30896;SDS011;64229;52.246;21.054;2023-08-21T11:25:22;6.28;;;3.90;;
30896;SDS011;64229;52.246;21.054;2023-08-21T11:27:47;6.30;;;3.93;;
30896;SDS011;64229;52.246;21.054;2023-08-21T11:30:12;6.57;;;4.00;;
30896;SDS011;64229;52.246;21.054;2023-08-21T11:32:38;6.38;;;4.07;;
30896;SDS011;64229;52.246;21.054;2023-08-21T11:35:04;4.90;;;3.30;;
30896;SDS011;64229;52.246;21.054;2023-08-21T11:37:29;6.03;;;3.45;;
30896;SDS011;64229;52.246;21.054;2023-08-21T11:39:55;5.90;;;3.50;;
30896;SDS011;64229;52.246;21.054;2023-08-21T11:42:22;6.22;;;3.78;;
30896;SDS011;64229;52.246;21.054;2023-08-21T11:44:55;4.07;;;3.10;;
30896;SDS011;64229;52.246;21.054;2023-08-21T11:47:21;3.78;;;2.88;;
30896;SDS011;64229;52.246;21.054;2023-08-21T11:49:48;4.13;;;2.60;;
30896;SDS011;64229;52.246;21.054;2023-08-21T11:52:17;3.97;;;2.60;;
30896;SDS011;64229;52.246;21.054;2023-08-21T11:54:50;5.47;;;2.55;;
30896;SDS011;64229;52.246;21.054;2023-08-21T11:57:16;2.90;;;2.05;;
30896;SDS011;64229;52.246;21.054;2023-08-21T11:59:42;3.38;;;2.45;;
30896;SDS011;64229;52.246;21.054;2023-08-21T12:02:14;5.45;;;2.58;;
30896;SDS011;64229;52.246;21.054;2023-08-21T12:07:07;5.38;;;2.83;;
30896;SDS011;64229;52.246;21.054;2023-08-21T12:09:32;4.45;;;2.50;;
30896;SDS011;64229;52.246;21.054;2023-08-21T12:11:58;5.32;;;2.60;;
30896;SDS011;64229;52.246;21.054;2023-08-21T12:14:23;4.90;;;2.65;;
30896;SDS011;64229;52.246;21.054;2023-08-21T12:16:49;4.15;;;2.70;;
30896;SDS011;64229;52.246;21.054;2023-08-21T12:19:14;6.90;;;2.90;;
30896;SDS011;64229;52.246;21.054;2023-08-21T12:21:39;5.60;;;2.30;;
30896;SDS011;64229;52.246;21.054;2023-08-21T12:24:05;17.63;;;3.20;;
30896;SDS011;64229;52.246;21.054;2023-08-21T12:26:31;5.15;;;2.53;;
30896;SDS011;64229;52.246;21.054;2023-08-21T12:28:57;5.00;;;2.55;;
30896;SDS011;64229;52.246;21.054;2023-08-21T12:31:22;5.87;;;2.60;;
30896;SDS011;64229;52.246;21.054;2023-08-21T12:33:47;4.67;;;2.60;;
30896;SDS011;64229;52.246;21.054;2023-08-21T12:36:13;8.30;;;2.93;;
30896;SDS011;64229;52.246;21.054;2023-08-21T12:38:38;4.30;;;2.50;;
30896;SDS011;64229;52.246;21.054;2023-08-21T12:41:03;3.47;;;2.20;;
30896;SDS011;64229;52.246;21.054;2023-08-21T12:43:29;4.20;;;2.50;;
30896;SDS011;64229;52.246;21.054;2023-08-21T12:45:55;3.38;;;2.38;;
30896;SDS011;64229;52.246;21.054;2023-08-21T12:48:20;4.20;;;2.60;;
30896;SDS011;64229;52.246;21.054;2023-08-21T12:50:46;5.17;;;2.50;;
30896;SDS011;64229;52.246;21.054;2023-08-21T12:53:11;6.63;;;2.33;;
30896;SDS011;64229;52.246;21.054;2023-08-21T12:55:36;4.20;;;2.40;;
30896;SDS011;64229;52.246;21.054;2023-08-21T12:58:01;4.37;;;2.00;;
30896;SDS011;64229;52.246;21.054;2023-08-21T13:00:27;3.53;;;2.15;;
30896;SDS011;64229;52.246;21.054;2023-08-21T13:02:52;4.38;;;2.25;;
30896;SDS011;64229;52.246;21.054;2023-08-21T13:05:17;5.03;;;2.00;;
30896;SDS011;64229;52.246;21.054;2023-08-21T13:07:42;5.40;;;2.37;;
30896;SDS011;64229;52.246;21.054;2023-08-21T13:10:08;7.00;;;1.90;;
30896;SDS011;64229;52.246;21.054;2023-08-21T13:12:33;6.55;;;2.13;;
30896;SDS011;64229;52.246;21.054;2023-08-21T13:14:59;5.82;;;1.95;;
30896;SDS011;64229;52.246;21.054;2023-08-21T13:17:24;4.72;;;1.90;;
30896;SDS011;64229;52.246;21.054;2023-08-21T13:19:50;3.43;;;1.90;;
30896;SDS011;64229;52.246;21.054;2023-08-21T13:22:18;4.90;;;1.70;;
30896;SDS011;64229;52.246;21.054;2023-08-21T13:24:43;4.55;;;1.63;;
30896;SDS011;64229;52.246;21.054;2023-08-21T13:27:09;2.97;;;1.65;;
30896;SDS011;64229;52.246;21.054;2023-08-21T13:29:34;3.10;;;1.52;;
30896;SDS011;64229;52.246;21.054;2023-08-21T13:31:59;3.40;;;1.40;;
30896;SDS011;64229;52.246;21.054;2023-08-21T13:34:24;3.20;;;1.60;;
30896;SDS011;64229;52.246;21.054;2023-08-21T13:36:50;3.23;;;1.27;;
30896;SDS011;64229;52.246;21.054;2023-08-21T13:39:16;4.18;;;1.88;;
30896;SDS011;64229;52.246;21.054;2023-08-21T13:41:41;3.05;;;1.65;;
30896;SDS011;64229;52.246;21.054;2023-08-21T13:44:07;2.70;;;1.17;;
30896;SDS011;64229;52.246;21.054;2023-08-21T13:46:33;4.00;;;1.88;;
30896;SDS011;64229;52.246;21.054;2023-08-21T13:48:58;5.45;;;1.50;;
30896;SDS011;64229;52.246;21.054;2023-08-21T13:51:24;2.30;;;1.63;;
30896;SDS011;64229;52.246;21.054;2023-08-21T13:53:49;2.40;;;1.53;;
30896;SDS011;64229;52.246;21.054;2023-08-21T13:56:14;3.53;;;1.40;;
30896;SDS011;64229;52.246;21.054;2023-08-21T13:58:39;3.97;;;1.40;;
30896;SDS011;64229;52.246;21.054;2023-08-21T14:01:05;5.90;;;1.50;;
30896;SDS011;64229;52.246;21.054;2023-08-21T14:03:32;5.45;;;1.80;;
30896;SDS011;64229;52.246;21.054;2023-08-21T14:05:57;3.20;;;1.77;;
30896;SDS011;64229;52.246;21.054;2023-08-21T14:08:22;4.13;;;1.20;;
30896;SDS011;64229;52.246;21.054;2023-08-21T14:10:47;4.03;;;2.13;;
30896;SDS011;64229;52.246;21.054;2023-08-21T14:13:13;2.27;;;1.40;;
30896;SDS011;64229;52.246;21.054;2023-08-21T14:15:38;5.13;;;1.43;;
30896;SDS011;64229;52.246;21.054;2023-08-21T14:18:03;3.37;;;1.57;;